Pagina principale
METAR-TAF:

METAR-TAF

Aeroporti :

Aeroporto di Catania-Fontanarossa

Catania, Italia

latitudine: 37-28N, longitudine: 015-03E, altezza: 11 m

Osservazione

Il bollettino è stato emesso 16 minuti fa, alle 12:50 UTC
Vento 25 kt da est/nord-est
Temperature 10°C
Umidità 87%
Pressione 1023 hPa
Visibilità: 3000 m
Nuvoloso ad un'altezza di 1000 ft
Cielo coperto ad un'altezza di 2500 ft
pioggia, foschia

METAR: LICC 091250Z 07025KT 3000 RA BR BKN010 OVC025 10/08 Q1023

Ora: 14:06 (13:06 UTC)

Previsione

Il bollettino è stato emesso 2 ore e 6 minuti fa, alle 11:00 UTC
Previsione valida dal 09 alle 12 UTC al 10 alle 12 UTC
Vento 30 kt da est/nord-est con raffiche fino a 42 kt
Visibilità: 4000 m
Nuvoloso ad un'altezza di 1500 ft
Nuvoloso ad un'altezza di 3000 ft
pioggia

TAF: LICC 091100Z 0912/1012 07030G42KT 4000 RA BKN015 BKN030

Osservazioni e previsioni meteorologiche di più di 4000 aeroporti (messaggi METAR e TAF).

Le stazioni disponibili sono rappresentate dai dischi gialli e rossi sulla carta.

Puntare il mouse per vedere il nome della stazione.

Clicca sopra per visualizzare le osservazioni e previsioni meteorologiche.

Per cambiare la mappa : fare clic sui pulsanti verdi con una croce nera per ingrandire, il pulsante verde con un trattino per diminuire, o sulla freccia verde per le mappe adiacenti.


METAR-TAF: